createdAt,value
2017-12-25T00:00:10.998Z,9.30
2017-12-25T00:02:38.439Z,10.70
2017-12-25T00:05:05.864Z,9.77
2017-12-25T00:07:33.308Z,10.30
2017-12-25T00:10:00.706Z,11.00
2017-12-25T00:12:28.121Z,11.37
2017-12-25T00:14:55.536Z,11.77
2017-12-25T00:17:22.953Z,11.40
2017-12-25T00:19:50.377Z,10.93
2017-12-25T00:22:17.819Z,11.57
2017-12-25T00:24:45.226Z,11.67
2017-12-25T00:27:12.648Z,10.77
2017-12-25T00:29:40.098Z,10.40
2017-12-25T00:32:07.505Z,10.37
2017-12-25T00:34:34.908Z,9.87
2017-12-25T00:37:02.345Z,10.60
2017-12-25T00:39:29.745Z,9.93
2017-12-25T00:41:57.148Z,9.93
2017-12-25T00:44:24.660Z,10.23
2017-12-25T00:46:52.064Z,9.80
2017-12-25T00:49:19.497Z,10.20
2017-12-25T00:51:46.938Z,10.10
2017-12-25T00:54:14.352Z,10.10
2017-12-25T00:56:41.769Z,10.50
2017-12-25T00:59:09.291Z,9.70
2017-12-25T01:01:36.694Z,10.30
2017-12-25T01:04:04.101Z,9.60
2017-12-25T01:06:31.526Z,10.33
2017-12-25T01:08:58.959Z,10.80
2017-12-25T01:11:26.344Z,11.00
2017-12-25T01:13:53.769Z,10.47
2017-12-25T01:16:21.185Z,10.07
2017-12-25T01:18:48.594Z,9.80
2017-12-25T01:21:16.018Z,9.67
2017-12-25T01:23:43.430Z,9.97
2017-12-25T01:26:10.833Z,9.83
2017-12-25T01:28:38.261Z,9.37
2017-12-25T01:31:05.682Z,9.70
2017-12-25T01:33:33.086Z,9.87
2017-12-25T01:36:00.592Z,9.30
2017-12-25T01:38:27.993Z,9.50
2017-12-25T01:40:55.393Z,9.20
2017-12-25T01:43:22.806Z,9.30
2017-12-25T01:45:50.197Z,9.10
2017-12-25T01:48:17.605Z,9.33
2017-12-25T01:50:45.021Z,9.90
2017-12-25T01:53:12.439Z,10.20
2017-12-25T01:55:39.845Z,9.60
2017-12-25T01:58:23.025Z,9.70
2017-12-25T02:03:52.933Z,9.73
2017-12-25T02:06:32.080Z,9.90
2017-12-25T02:08:59.513Z,10.27
2017-12-25T02:11:26.943Z,10.20
2017-12-25T02:13:54.338Z,9.77
2017-12-25T02:16:21.769Z,10.10
2017-12-25T02:18:49.192Z,10.27
2017-12-25T02:21:16.596Z,10.10
2017-12-25T02:23:44.108Z,10.30
2017-12-25T02:26:11.517Z,10.03
2017-12-25T02:28:38.933Z,10.07
2017-12-25T02:31:06.446Z,9.50
2017-12-25T02:33:33.861Z,10.07
2017-12-25T02:36:01.277Z,10.53
2017-12-25T02:38:28.714Z,9.90
2017-12-25T02:40:56.117Z,9.83
2017-12-25T02:43:23.521Z,9.90
2017-12-25T02:45:50.983Z,9.70
2017-12-25T02:48:18.381Z,10.23
2017-12-25T02:50:45.794Z,10.30
2017-12-25T02:53:13.208Z,9.80
2017-12-25T02:55:40.607Z,9.80
2017-12-25T02:58:08.017Z,9.63
2017-12-25T03:00:35.425Z,9.93
2017-12-25T03:03:02.837Z,10.20
2017-12-25T03:05:30.245Z,10.10
2017-12-25T03:07:57.685Z,10.40
2017-12-25T03:10:25.086Z,10.33
2017-12-25T03:12:52.498Z,10.30
2017-12-25T03:15:19.919Z,10.80
2017-12-25T03:17:47.337Z,10.90
2017-12-25T03:20:14.749Z,11.23
2017-12-25T03:22:42.169Z,10.83
2017-12-25T03:25:09.594Z,11.03
2017-12-25T03:27:37.009Z,10.67
2017-12-25T03:30:04.432Z,11.40
2017-12-25T03:32:31.837Z,10.70
2017-12-25T03:34:59.247Z,11.00
2017-12-25T03:37:26.691Z,10.50
2017-12-25T03:39:54.096Z,10.63
2017-12-25T03:42:21.505Z,10.93
2017-12-25T03:44:48.952Z,10.63
2017-12-25T03:47:16.354Z,10.60
2017-12-25T03:49:43.754Z,11.40
2017-12-25T03:52:11.181Z,10.60
2017-12-25T03:54:38.617Z,10.83
2017-12-25T03:57:06.027Z,10.50
2017-12-25T03:59:33.449Z,10.50
2017-12-25T04:02:00.862Z,10.20
2017-12-25T04:04:28.269Z,10.43
2017-12-25T04:06:55.709Z,10.63
2017-12-25T04:09:23.125Z,10.80
2017-12-25T04:11:50.545Z,10.83
2017-12-25T04:14:17.992Z,10.43
2017-12-25T04:16:45.400Z,10.73
2017-12-25T04:19:12.818Z,10.70
2017-12-25T04:21:40.254Z,10.70
2017-12-25T04:24:07.653Z,10.60
2017-12-25T04:26:35.066Z,10.30
2017-12-25T04:29:02.581Z,10.70
2017-12-25T04:31:29.993Z,10.40
2017-12-25T04:33:57.401Z,10.77
2017-12-25T04:36:24.833Z,10.23
2017-12-25T04:38:52.233Z,9.80
2017-12-25T04:41:19.642Z,10.00
2017-12-25T04:43:47.065Z,10.00
2017-12-25T04:46:14.477Z,10.77
2017-12-25T04:48:41.881Z,10.50
2017-12-25T04:51:09.309Z,10.73
2017-12-25T04:53:36.713Z,10.13
2017-12-25T04:56:04.140Z,9.80
2017-12-25T04:58:31.549Z,10.40
2017-12-25T05:00:58.945Z,9.50
2017-12-25T05:03:26.360Z,10.53
2017-12-25T05:05:53.798Z,10.10
2017-12-25T05:08:21.200Z,10.30
2017-12-25T05:10:48.616Z,10.53
2017-12-25T05:13:16.042Z,10.53
2017-12-25T05:15:43.448Z,10.50
2017-12-25T05:18:10.856Z,10.07
2017-12-25T05:20:38.277Z,10.30
2017-12-25T05:23:05.680Z,10.00
2017-12-25T05:25:33.088Z,10.73
2017-12-25T05:28:00.509Z,10.00
2017-12-25T05:30:27.913Z,9.63
2017-12-25T05:32:55.321Z,10.00
2017-12-25T05:35:22.753Z,10.17
2017-12-25T05:37:50.171Z,9.70
2017-12-25T05:40:17.573Z,10.30
2017-12-25T05:42:45.095Z,9.80
2017-12-25T05:45:12.489Z,9.50
2017-12-25T05:47:40.118Z,9.20
2017-12-25T05:50:07.538Z,9.30
2017-12-25T05:52:34.942Z,9.00
2017-12-25T05:55:02.358Z,9.20
2017-12-25T05:57:29.778Z,10.30
2017-12-25T05:59:57.182Z,9.73
2017-12-25T06:02:24.581Z,7.80
2017-12-25T06:04:52.020Z,7.73
2017-12-25T06:07:19.426Z,8.30
2017-12-25T06:09:46.825Z,8.07
2017-12-25T06:12:14.336Z,7.80
2017-12-25T06:14:41.741Z,7.90
2017-12-25T06:17:09.145Z,8.10
2017-12-25T06:19:36.560Z,8.03
2017-12-25T06:22:03.965Z,7.80
2017-12-25T06:24:31.379Z,7.90
2017-12-25T06:26:58.878Z,7.90
2017-12-25T06:29:26.281Z,8.00
2017-12-25T06:31:53.682Z,7.90
2017-12-25T06:34:21.098Z,8.17
2017-12-25T06:36:48.498Z,7.70
2017-12-25T06:39:15.893Z,7.80
2017-12-25T06:41:43.317Z,7.43
2017-12-25T06:44:10.721Z,7.40
2017-12-25T06:46:38.125Z,7.20
2017-12-25T06:49:05.543Z,7.40
2017-12-25T06:51:32.945Z,7.30
2017-12-25T06:54:00.345Z,7.27
2017-12-25T06:56:27.758Z,7.20
2017-12-25T06:58:55.185Z,7.40
2017-12-25T07:01:22.643Z,8.17
2017-12-25T07:03:50.166Z,8.70
2017-12-25T07:06:17.565Z,6.80
2017-12-25T07:08:44.983Z,7.70
2017-12-25T07:11:12.405Z,7.93
2017-12-25T07:13:39.809Z,7.77
2017-12-25T07:16:07.207Z,8.20
2017-12-25T07:18:34.629Z,7.40
2017-12-25T07:21:02.030Z,7.70
2017-12-25T07:23:29.432Z,7.53
2017-12-25T07:25:56.934Z,7.47
2017-12-25T07:28:24.329Z,7.83
2017-12-25T07:30:51.734Z,8.00
2017-12-25T07:33:19.147Z,7.77
2017-12-25T07:35:46.549Z,8.60
2017-12-25T07:38:13.958Z,7.77
2017-12-25T07:40:41.379Z,8.60
2017-12-25T07:43:08.777Z,8.60
2017-12-25T07:45:36.177Z,8.30
2017-12-25T07:48:03.596Z,9.07
2017-12-25T07:50:30.992Z,8.27
2017-12-25T07:52:58.387Z,8.10
2017-12-25T07:55:25.797Z,8.37
2017-12-25T07:57:53.201Z,8.50
2017-12-25T08:00:20.598Z,7.97
2017-12-25T08:02:48.031Z,7.30
2017-12-25T08:05:15.425Z,7.53
2017-12-25T08:07:42.846Z,6.90
2017-12-25T08:10:10.270Z,8.03
2017-12-25T08:12:37.670Z,8.33
2017-12-25T08:15:05.085Z,7.87
2017-12-25T08:17:32.514Z,7.03
2017-12-25T08:19:59.919Z,8.20
2017-12-25T08:22:27.327Z,8.20
2017-12-25T08:24:54.729Z,8.53
2017-12-25T08:27:22.141Z,8.77
2017-12-25T08:29:49.542Z,8.87
2017-12-25T08:32:16.949Z,8.10
2017-12-25T08:34:45.353Z,8.13
2017-12-25T08:37:13.013Z,8.43
2017-12-25T08:39:40.425Z,8.57
2017-12-25T08:42:07.821Z,8.50
2017-12-25T08:44:35.234Z,8.97
2017-12-25T08:47:02.689Z,8.40
2017-12-25T08:49:30.088Z,8.37
2017-12-25T08:51:57.485Z,8.27
2017-12-25T08:54:25.006Z,8.27
2017-12-25T08:56:52.415Z,8.23
2017-12-25T08:59:19.833Z,8.23
2017-12-25T09:01:47.270Z,8.17
2017-12-25T09:04:14.702Z,7.70
2017-12-25T09:06:42.110Z,7.73
2017-12-25T09:09:09.571Z,7.63
2017-12-25T09:11:36.979Z,8.67
2017-12-25T09:14:04.449Z,7.60
2017-12-25T09:16:31.868Z,7.97
2017-12-25T09:18:59.279Z,8.70
2017-12-25T09:21:26.695Z,8.57
2017-12-25T09:23:54.126Z,8.70
2017-12-25T09:26:21.537Z,8.77
2017-12-25T09:28:48.966Z,8.53
2017-12-25T09:31:16.365Z,9.03
2017-12-25T09:33:43.775Z,9.00
2017-12-25T09:36:11.179Z,9.20
2017-12-25T09:38:38.598Z,9.50
2017-12-25T09:41:06.002Z,9.00
2017-12-25T09:43:33.405Z,9.00
2017-12-25T09:46:00.821Z,9.20
2017-12-25T09:48:28.234Z,9.70
2017-12-25T09:50:55.651Z,9.90
2017-12-25T09:53:23.065Z,9.47
2017-12-25T09:55:50.479Z,9.30
2017-12-25T09:58:17.881Z,8.90
2017-12-25T10:00:45.293Z,8.70
2017-12-25T10:03:12.694Z,8.73
2017-12-25T10:05:40.118Z,9.37
2017-12-25T10:08:07.529Z,8.43
2017-12-25T10:10:34.933Z,8.27
2017-12-25T10:13:02.338Z,8.53
2017-12-25T10:15:29.790Z,9.10
2017-12-25T10:17:57.200Z,8.70
2017-12-25T10:20:24.605Z,8.63
2017-12-25T10:22:52.051Z,8.40
2017-12-25T10:25:19.453Z,9.43
2017-12-25T10:27:46.857Z,9.53
2017-12-25T10:30:14.286Z,9.23
2017-12-25T10:32:41.697Z,9.43
2017-12-25T10:35:09.156Z,9.83
2017-12-25T10:37:36.561Z,9.67
2017-12-25T10:40:04.983Z,10.00
2017-12-25T10:42:32.421Z,9.53
2017-12-25T10:44:59.809Z,8.90
2017-12-25T10:47:27.214Z,9.13
2017-12-25T10:49:58.107Z,8.37
2017-12-25T10:52:25.513Z,8.10
2017-12-25T10:54:52.920Z,7.70
2017-12-25T10:57:20.321Z,8.17
2017-12-25T10:59:47.871Z,7.30
2017-12-25T11:02:15.364Z,7.53
2017-12-25T11:04:42.934Z,8.00
2017-12-25T11:07:10.369Z,7.80
2017-12-25T11:09:37.825Z,8.90
2017-12-25T11:12:05.255Z,7.83
2017-12-25T11:14:32.684Z,8.30
2017-12-25T11:17:00.103Z,8.30
2017-12-25T11:19:27.515Z,8.50
2017-12-25T11:21:54.978Z,8.03
2017-12-25T11:24:22.389Z,8.30
2017-12-25T11:26:49.797Z,8.10
2017-12-25T11:29:17.221Z,8.00
2017-12-25T11:31:43.919Z,7.70
2017-12-25T11:34:11.317Z,7.00
2017-12-25T11:36:38.729Z,7.80
2017-12-25T11:39:06.158Z,7.43
2017-12-25T11:41:33.562Z,7.37
2017-12-25T11:44:01.078Z,7.90
2017-12-25T11:46:28.489Z,7.30
2017-12-25T11:48:55.889Z,7.83
2017-12-25T11:51:23.401Z,7.20
2017-12-25T11:53:50.909Z,6.83
2017-12-25T11:56:18.322Z,7.50
2017-12-25T11:58:45.845Z,6.90
2017-12-25T12:01:13.253Z,8.07
2017-12-25T12:03:40.658Z,8.00
2017-12-25T12:06:08.073Z,7.50
2017-12-25T12:08:35.476Z,7.10
2017-12-25T12:11:02.897Z,7.50
2017-12-25T12:13:30.364Z,7.37
2017-12-25T12:15:57.770Z,8.43
2017-12-25T12:18:25.177Z,13.53
2017-12-25T12:20:52.688Z,9.30
2017-12-25T12:23:20.130Z,7.37
2017-12-25T12:25:47.537Z,7.50
2017-12-25T12:28:14.961Z,8.00
2017-12-25T12:30:42.366Z,7.40
2017-12-25T12:33:09.769Z,7.60
2017-12-25T12:35:37.191Z,7.80
2017-12-25T12:38:04.600Z,7.40
2017-12-25T12:40:32.013Z,7.43
2017-12-25T12:42:59.424Z,7.90
2017-12-25T12:45:26.837Z,7.43
2017-12-25T12:47:54.244Z,8.17
2017-12-25T12:50:21.652Z,8.70
2017-12-25T12:52:49.061Z,8.40
2017-12-25T12:55:16.464Z,8.20
2017-12-25T12:57:43.985Z,8.40
2017-12-25T13:00:11.385Z,7.60
2017-12-25T13:02:38.789Z,8.07
2017-12-25T13:05:06.253Z,8.00
2017-12-25T13:07:33.704Z,8.20
2017-12-25T13:10:01.154Z,8.03
2017-12-25T13:12:29.113Z,7.43
2017-12-25T13:14:56.521Z,8.20
2017-12-25T13:17:23.935Z,7.57
2017-12-25T13:19:51.373Z,8.07
2017-12-25T13:22:18.790Z,7.50
2017-12-25T13:24:46.199Z,7.67
2017-12-25T13:27:13.613Z,7.57
2017-12-25T13:29:41.023Z,6.73
2017-12-25T13:32:08.462Z,7.70
2017-12-25T13:34:35.867Z,6.83
2017-12-25T13:37:03.269Z,6.80
2017-12-25T13:39:30.675Z,7.37
2017-12-25T13:41:58.185Z,7.37
2017-12-25T13:44:25.608Z,8.77
2017-12-25T13:46:53.001Z,8.93
2017-12-25T13:49:20.418Z,9.10
2017-12-25T13:51:47.825Z,8.70
2017-12-25T13:54:15.230Z,9.30
2017-12-25T13:56:42.642Z,9.00
2017-12-25T13:59:10.053Z,9.53
2017-12-25T14:01:37.477Z,10.03
2017-12-25T14:04:04.889Z,9.23
2017-12-25T14:06:32.297Z,9.70
2017-12-25T14:08:59.747Z,9.00
2017-12-25T14:11:27.153Z,8.93
2017-12-25T14:13:54.550Z,8.70
2017-12-25T14:16:21.947Z,9.10
2017-12-25T14:18:49.356Z,9.53
2017-12-25T14:21:16.765Z,9.60
2017-12-25T14:23:44.167Z,9.60
2017-12-25T14:26:11.601Z,9.50
2017-12-25T14:28:39.021Z,10.80
2017-12-25T14:31:06.445Z,10.17
2017-12-25T14:33:33.890Z,9.67
2017-12-25T14:36:01.297Z,8.90
2017-12-25T14:38:28.697Z,9.83
2017-12-25T14:40:56.118Z,9.80
2017-12-25T14:43:23.533Z,10.50
2017-12-25T14:45:50.937Z,9.77
2017-12-25T14:48:18.380Z,9.70
2017-12-25T14:50:45.789Z,9.60
2017-12-25T14:53:13.198Z,9.37
2017-12-25T14:55:40.638Z,9.90
2017-12-25T14:58:08.048Z,10.43
2017-12-25T15:00:35.460Z,10.60
2017-12-25T15:03:02.973Z,10.27
2017-12-25T15:05:30.375Z,9.20
2017-12-25T15:07:57.774Z,9.50
2017-12-25T15:10:25.290Z,9.80
2017-12-25T15:12:52.697Z,9.27
2017-12-25T15:15:20.105Z,9.60
2017-12-25T15:17:47.534Z,9.57
2017-12-25T15:20:14.944Z,10.00
2017-12-25T15:22:42.346Z,9.43
2017-12-25T15:25:09.785Z,10.20
2017-12-25T15:27:37.190Z,9.93
2017-12-25T15:30:04.597Z,9.87
2017-12-25T15:32:32.006Z,9.30
2017-12-25T15:34:59.409Z,9.50
2017-12-25T15:37:26.817Z,9.27
2017-12-25T15:39:54.229Z,9.10
2017-12-25T15:42:21.637Z,9.70
2017-12-25T15:44:49.053Z,10.23
2017-12-25T15:47:16.565Z,9.30
2017-12-25T15:49:43.965Z,9.70
2017-12-25T15:52:11.370Z,9.83
2017-12-25T15:54:38.890Z,11.03
2017-12-25T15:57:06.310Z,10.87
2017-12-25T15:59:33.709Z,10.53
2017-12-25T16:02:01.223Z,9.00
2017-12-25T16:04:28.626Z,8.90
2017-12-25T16:06:56.021Z,9.00
2017-12-25T16:09:23.459Z,9.30
2017-12-25T16:11:50.852Z,9.40
2017-12-25T16:14:18.253Z,9.20
2017-12-25T16:16:45.711Z,9.10
2017-12-25T16:19:13.102Z,9.23
2017-12-25T16:21:40.510Z,9.00
2017-12-25T16:24:07.945Z,9.27
2017-12-25T16:26:35.353Z,10.60
2017-12-25T16:29:02.753Z,9.20
2017-12-25T16:31:30.165Z,8.50
2017-12-25T16:33:57.567Z,9.30
2017-12-25T16:36:24.960Z,9.30
2017-12-25T16:38:52.379Z,8.90
2017-12-25T16:41:19.773Z,8.67
2017-12-25T16:43:47.174Z,9.30
2017-12-25T16:46:14.601Z,8.97
2017-12-25T16:48:41.997Z,8.80
2017-12-25T16:51:09.400Z,9.60
2017-12-25T16:53:36.826Z,9.07
2017-12-25T16:56:04.228Z,10.70
2017-12-25T16:58:31.645Z,10.50
2017-12-25T17:00:59.077Z,9.73
2017-12-25T17:03:26.478Z,9.20
2017-12-25T17:05:53.882Z,9.73
2017-12-25T17:08:21.326Z,9.57
2017-12-25T17:10:48.730Z,9.67
2017-12-25T17:13:16.138Z,10.13
2017-12-25T17:15:43.562Z,10.10
2017-12-25T17:18:10.974Z,9.87
2017-12-25T17:20:38.387Z,10.30
2017-12-25T17:23:05.830Z,10.23
2017-12-25T17:25:33.220Z,9.57
2017-12-25T17:28:00.625Z,9.67
2017-12-25T17:30:28.049Z,9.70
2017-12-25T17:32:55.458Z,10.70
2017-12-25T17:35:22.869Z,9.50
2017-12-25T17:37:50.289Z,9.50
2017-12-25T17:40:17.702Z,8.80
2017-12-25T17:42:45.115Z,8.10
2017-12-25T17:45:12.541Z,8.90
2017-12-25T17:47:39.944Z,8.87
2017-12-25T17:50:07.341Z,9.00
2017-12-25T17:52:34.858Z,8.63
2017-12-25T17:55:02.265Z,9.27
2017-12-25T17:57:29.674Z,9.03
2017-12-25T17:59:57.102Z,9.40
2017-12-25T18:02:24.508Z,9.20
2017-12-25T18:04:51.905Z,9.07
2017-12-25T18:07:19.318Z,9.20
2017-12-25T18:09:46.742Z,9.00
2017-12-25T18:12:14.152Z,9.03
2017-12-25T18:14:41.577Z,8.50
2017-12-25T18:17:08.978Z,8.70
2017-12-25T18:19:36.381Z,8.87
2017-12-25T18:22:03.802Z,9.03
2017-12-25T18:24:31.201Z,8.63
2017-12-25T18:26:58.602Z,8.93
2017-12-25T18:29:26.113Z,7.70
2017-12-25T18:31:53.509Z,7.93
2017-12-25T18:34:20.934Z,8.70
2017-12-25T18:36:48.426Z,8.13
2017-12-25T18:39:15.825Z,8.57
2017-12-25T18:41:43.221Z,9.37
2017-12-25T18:44:10.645Z,8.87
2017-12-25T18:46:38.045Z,8.50
2017-12-25T18:49:05.440Z,8.20
2017-12-25T18:51:32.849Z,9.07
2017-12-25T18:54:00.258Z,9.70
2017-12-25T18:56:27.654Z,8.80
2017-12-25T18:58:55.089Z,8.67
2017-12-25T19:01:22.493Z,8.30
2017-12-25T19:03:49.911Z,9.97
2017-12-25T19:06:17.333Z,9.73
2017-12-25T19:08:44.732Z,9.33
2017-12-25T19:11:12.130Z,9.00
2017-12-25T19:13:39.565Z,9.10
2017-12-25T19:16:06.967Z,8.97
2017-12-25T19:18:34.358Z,8.80
2017-12-25T19:21:01.814Z,8.80
2017-12-25T19:23:29.213Z,8.50
2017-12-25T19:25:56.613Z,8.53
2017-12-25T19:28:24.033Z,8.60
2017-12-25T19:30:51.438Z,9.03
2017-12-25T19:33:18.834Z,8.60
2017-12-25T19:35:46.253Z,8.53
2017-12-25T19:38:13.649Z,8.13
2017-12-25T19:40:41.050Z,8.80
2017-12-25T19:43:08.492Z,8.53
2017-12-25T19:45:35.872Z,8.90
2017-12-25T19:48:03.270Z,8.90
2017-12-25T19:50:30.690Z,8.90
2017-12-25T19:52:58.081Z,9.07
2017-12-25T19:55:25.481Z,9.20
2017-12-25T19:57:52.906Z,9.60
2017-12-25T20:00:20.301Z,9.27
2017-12-25T20:02:47.713Z,10.77
2017-12-25T20:05:15.154Z,10.97
2017-12-25T20:07:42.554Z,11.00
2017-12-25T20:10:09.963Z,10.67
2017-12-25T20:12:37.400Z,11.00
2017-12-25T20:15:04.809Z,11.40
2017-12-25T20:17:32.220Z,12.10
2017-12-25T20:19:59.637Z,11.27
2017-12-25T20:22:27.050Z,11.27
2017-12-25T20:24:54.448Z,12.20
2017-12-25T20:27:21.865Z,12.17
2017-12-25T20:29:49.274Z,11.50
2017-12-25T20:32:16.677Z,11.53
2017-12-25T20:34:44.136Z,12.03
2017-12-25T20:37:11.546Z,12.30
2017-12-25T20:39:38.949Z,11.37
2017-12-25T20:42:06.389Z,11.80
2017-12-25T20:44:33.793Z,11.43
2017-12-25T20:47:01.193Z,12.57
2017-12-25T20:49:28.616Z,11.90
2017-12-25T20:51:56.022Z,13.03
2017-12-25T20:54:23.466Z,11.93
2017-12-25T20:56:50.995Z,11.97
2017-12-25T20:59:18.418Z,13.00
2017-12-25T21:01:45.857Z,12.73
2017-12-25T21:04:13.297Z,12.53
2017-12-25T21:06:40.721Z,13.63
2017-12-25T21:09:08.132Z,12.77
2017-12-25T21:11:35.571Z,13.17
2017-12-25T21:14:02.982Z,13.80
2017-12-25T21:16:30.385Z,14.33
2017-12-25T21:18:57.802Z,13.60
2017-12-25T21:21:25.209Z,13.73
2017-12-25T21:23:52.635Z,14.70
2017-12-25T21:26:20.074Z,13.00
2017-12-25T21:28:47.473Z,14.63
2017-12-25T21:31:14.877Z,13.33
2017-12-25T21:33:42.340Z,13.03
2017-12-25T21:36:09.797Z,14.27
2017-12-25T21:38:37.201Z,13.90
2017-12-25T21:41:04.634Z,14.17
2017-12-25T21:43:32.041Z,14.63
2017-12-25T21:45:59.445Z,14.80
2017-12-25T21:48:26.854Z,14.00
2017-12-25T21:50:54.258Z,14.50
2017-12-25T21:53:21.662Z,13.70
2017-12-25T21:55:49.081Z,13.83
2017-12-25T21:58:16.485Z,13.07
2017-12-25T22:00:43.892Z,14.07
2017-12-25T22:03:11.302Z,13.07
2017-12-25T22:05:38.705Z,13.90
2017-12-25T22:08:06.130Z,13.30
2017-12-25T22:10:33.558Z,13.10
2017-12-25T22:13:00.971Z,13.87
2017-12-25T22:15:28.373Z,12.60
2017-12-25T22:17:55.790Z,13.17
2017-12-25T22:20:23.186Z,14.40
2017-12-25T22:22:50.593Z,14.40
2017-12-25T22:25:18.105Z,14.23
2017-12-25T22:27:45.509Z,13.20
2017-12-25T22:30:12.917Z,13.33
2017-12-25T22:32:40.358Z,13.47
2017-12-25T22:35:07.761Z,13.10
2017-12-25T22:37:35.454Z,13.20
2017-12-25T22:40:02.868Z,13.70
2017-12-25T22:42:30.273Z,13.53
2017-12-25T22:44:57.683Z,13.13
2017-12-25T22:47:25.105Z,13.73
2017-12-25T22:49:52.513Z,13.13
2017-12-25T22:52:19.926Z,13.07
2017-12-25T22:54:47.337Z,12.80
2017-12-25T22:57:14.781Z,13.63
2017-12-25T22:59:42.185Z,13.70
2017-12-25T23:02:09.605Z,13.00
2017-12-25T23:04:37.014Z,14.00
2017-12-25T23:07:04.426Z,13.13
2017-12-25T23:09:31.853Z,13.33
2017-12-25T23:11:59.259Z,12.73
2017-12-25T23:14:26.666Z,13.00
2017-12-25T23:16:54.081Z,12.60
2017-12-25T23:19:21.489Z,13.10
2017-12-25T23:21:48.917Z,12.20
2017-12-25T23:24:16.434Z,12.40
2017-12-25T23:26:43.849Z,13.40
2017-12-25T23:29:11.251Z,11.63
2017-12-25T23:31:38.665Z,12.80
2017-12-25T23:34:06.114Z,11.20
2017-12-25T23:36:33.513Z,11.77
2017-12-25T23:39:00.958Z,12.40
2017-12-25T23:41:28.361Z,12.67
2017-12-25T23:43:55.765Z,12.47
2017-12-25T23:46:23.204Z,12.73
2017-12-25T23:48:50.605Z,12.37
2017-12-25T23:51:18.020Z,13.43
2017-12-25T23:53:45.433Z,12.60
2017-12-25T23:56:12.834Z,12.80
2017-12-25T23:58:40.241Z,12.77
